sensor_id;sensor_type;location;lat;lon;timestamp;temperature;humidity
20200;DHT22;36284;37.236;-121.934;2023-05-07T02:35:34;14.90;99.90
20200;DHT22;36284;37.236;-121.934;2023-05-07T02:38:01;14.90;99.90
20200;DHT22;36284;37.236;-121.934;2023-05-07T02:40:29;14.80;99.90
20200;DHT22;36284;37.236;-121.934;2023-05-07T02:42:56;14.80;99.90
20200;DHT22;36284;37.236;-121.934;2023-05-07T02:45:23;14.60;99.90
20200;DHT22;36284;37.236;-121.934;2023-05-07T02:47:49;14.60;99.90
20200;DHT22;36284;37.236;-121.934;2023-05-07T02:50:17;14.60;99.90
20200;DHT22;36284;37.236;-121.934;2023-05-07T02:52:43;14.50;99.90
20200;DHT22;36284;37.236;-121.934;2023-05-07T02:57:38;14.20;99.90
20200;DHT22;36284;37.236;-121.934;2023-05-07T03:00:12;14.20;99.90
20200;DHT22;36284;37.236;-121.934;2023-05-07T03:02:39;14.10;99.90
20200;DHT22;36284;37.236;-121.934;2023-05-07T03:05:07;14.10;99.90
20200;DHT22;36284;37.236;-121.934;2023-05-07T03:07:35;14.10;99.90
20200;DHT22;36284;37.236;-121.934;2023-05-07T03:10:03;13.90;99.90
20200;DHT22;36284;37.236;-121.934;2023-05-07T03:12:30;14.00;99.90
20200;DHT22;36284;37.236;-121.934;2023-05-07T03:14:57;14.00;99.90
20200;DHT22;36284;37.236;-121.934;2023-05-07T03:17:24;13.80;99.90
20200;DHT22;36284;37.236;-121.934;2023-05-07T03:19:51;13.70;99.90
20200;DHT22;36284;37.236;-121.934;2023-05-07T03:22:18;13.70;99.90
20200;DHT22;36284;37.236;-121.934;2023-05-07T03:24:45;13.70;99.90
20200;DHT22;36284;37.236;-121.934;2023-05-07T03:27:12;13.60;99.90
20200;DHT22;36284;37.236;-121.934;2023-05-07T03:29:39;13.70;99.90
20200;DHT22;36284;37.236;-121.934;2023-05-07T03:32:06;13.80;99.90
20200;DHT22;36284;37.236;-121.934;2023-05-07T03:34:33;13.80;99.90
20200;DHT22;36284;37.236;-121.934;2023-05-07T03:37:00;13.70;99.90
20200;DHT22;36284;37.236;-121.934;2023-05-07T03:39:27;13.70;99.90
20200;DHT22;36284;37.236;-121.934;2023-05-07T03:41:54;13.50;99.90
20200;DHT22;36284;37.236;-121.934;2023-05-07T03:44:21;13.40;99.90
20200;DHT22;36284;37.236;-121.934;2023-05-07T03:46:48;13.40;99.90
20200;DHT22;36284;37.236;-121.934;2023-05-07T03:49:15;13.40;99.90
20200;DHT22;36284;37.236;-121.934;2023-05-07T03:51:42;13.50;99.90
20200;DHT22;36284;37.236;-121.934;2023-05-07T03:54:09;13.40;99.90
20200;DHT22;36284;37.236;-121.934;2023-05-07T03:56:36;13.40;99.90
20200;DHT22;36284;37.236;-121.934;2023-05-07T03:59:03;13.20;99.90
20200;DHT22;36284;37.236;-121.934;2023-05-07T04:01:30;13.20;99.90
20200;DHT22;36284;37.236;-121.934;2023-05-07T04:03:57;13.00;99.90
20200;DHT22;36284;37.236;-121.934;2023-05-07T04:06:24;13.00;99.90
20200;DHT22;36284;37.236;-121.934;2023-05-07T04:08:51;12.80;99.90
20200;DHT22;36284;37.236;-121.934;2023-05-07T04:11:18;12.80;99.90
20200;DHT22;36284;37.236;-121.934;2023-05-07T04:13:45;12.70;99.90
20200;DHT22;36284;37.236;-121.934;2023-05-07T04:16:12;12.60;99.90
20200;DHT22;36284;37.236;-121.934;2023-05-07T04:18:39;12.50;99.90
20200;DHT22;36284;37.236;-121.934;2023-05-07T04:21:13;12.40;99.90
20200;DHT22;36284;37.236;-121.934;2023-05-07T04:23:40;12.40;99.90
20200;DHT22;36284;37.236;-121.934;2023-05-07T04:26:07;12.30;99.90
20200;DHT22;36284;37.236;-121.934;2023-05-07T04:28:35;12.30;99.90
20200;DHT22;36284;37.236;-121.934;2023-05-07T04:31:02;12.30;99.90
20200;DHT22;36284;37.236;-121.934;2023-05-07T04:33:29;12.20;99.90
20200;DHT22;36284;37.236;-121.934;2023-05-07T04:35:57;12.20;99.90
20200;DHT22;36284;37.236;-121.934;2023-05-07T04:38:24;12.20;99.90
20200;DHT22;36284;37.236;-121.934;2023-05-07T04:40:51;12.10;99.90
20200;DHT22;36284;37.236;-121.934;2023-05-07T04:43:19;12.10;99.90
20200;DHT22;36284;37.236;-121.934;2023-05-07T04:45:46;12.20;99.90
20200;DHT22;36284;37.236;-121.934;2023-05-07T04:48:13;12.20;99.90
20200;DHT22;36284;37.236;-121.934;2023-05-07T04:50:42;12.20;99.90
20200;DHT22;36284;37.236;-121.934;2023-05-07T04:53:09;12.20;99.90
20200;DHT22;36284;37.236;-121.934;2023-05-07T04:55:36;12.20;99.90
20200;DHT22;36284;37.236;-121.934;2023-05-07T04:58:03;12.30;99.90
20200;DHT22;36284;37.236;-121.934;2023-05-07T05:00:31;12.30;99.90
20200;DHT22;36284;37.236;-121.934;2023-05-07T05:02:58;12.20;99.90
20200;DHT22;36284;37.236;-121.934;2023-05-07T05:05:25;12.10;99.90
20200;DHT22;36284;37.236;-121.934;2023-05-07T05:07:52;12.00;99.90
20200;DHT22;36284;37.236;-121.934;2023-05-07T06:09:10;11.30;99.90
20200;DHT22;36284;37.236;-121.934;2023-05-07T06:11:37;11.50;99.90
20200;DHT22;36284;37.236;-121.934;2023-05-07T06:14:04;11.70;99.90
20200;DHT22;36284;37.236;-121.934;2023-05-07T06:16:34;11.80;99.90
20200;DHT22;36284;37.236;-121.934;2023-05-07T06:19:01;11.80;99.90
20200;DHT22;36284;37.236;-121.934;2023-05-07T06:21:28;11.70;99.90
20200;DHT22;36284;37.236;-121.934;2023-05-07T06:23:56;11.60;99.90
20200;DHT22;36284;37.236;-121.934;2023-05-07T06:26:23;11.60;99.90
20200;DHT22;36284;37.236;-121.934;2023-05-07T06:55:53;10.70;99.90
20200;DHT22;36284;37.236;-121.934;2023-05-07T06:58:20;10.60;99.90
20200;DHT22;36284;37.236;-121.934;2023-05-07T07:00:47;10.60;99.90
20200;DHT22;36284;37.236;-121.934;2023-05-07T07:03:14;10.70;99.90
20200;DHT22;36284;37.236;-121.934;2023-05-07T07:05:42;10.60;99.90
20200;DHT22;36284;37.236;-121.934;2023-05-07T07:08:09;10.70;99.90
20200;DHT22;36284;37.236;-121.934;2023-05-07T07:10:36;10.70;99.90
20200;DHT22;36284;37.236;-121.934;2023-05-07T07:13:03;10.70;99.90
20200;DHT22;36284;37.236;-121.934;2023-05-07T07:15:30;10.70;99.90
20200;DHT22;36284;37.236;-121.934;2023-05-07T07:17:57;10.70;99.90
20200;DHT22;36284;37.236;-121.934;2023-05-07T07:20:24;10.60;99.90
20200;DHT22;36284;37.236;-121.934;2023-05-07T07:22:51;10.60;99.90
20200;DHT22;36284;37.236;-121.934;2023-05-07T07:25:18;10.50;99.90
20200;DHT22;36284;37.236;-121.934;2023-05-07T07:27:45;10.60;99.90
20200;DHT22;36284;37.236;-121.934;2023-05-07T07:30:12;10.50;99.90
20200;DHT22;36284;37.236;-121.934;2023-05-07T07:32:39;10.50;99.90
20200;DHT22;36284;37.236;-121.934;2023-05-07T07:35:06;10.50;99.90
20200;DHT22;36284;37.236;-121.934;2023-05-07T07:37:33;10.50;99.90
20200;DHT22;36284;37.236;-121.934;2023-05-07T07:40:01;10.60;99.90
20200;DHT22;36284;37.236;-121.934;2023-05-07T07:42:27;10.60;99.90
20200;DHT22;36284;37.236;-121.934;2023-05-07T07:44:55;10.60;99.90
20200;DHT22;36284;37.236;-121.934;2023-05-07T07:47:23;10.60;99.90
20200;DHT22;36284;37.236;-121.934;2023-05-07T07:49:50;10.70;99.90
20200;DHT22;36284;37.236;-121.934;2023-05-07T07:52:17;10.70;99.90
20200;DHT22;36284;37.236;-121.934;2023-05-07T07:54:45;10.90;99.90
20200;DHT22;36284;37.236;-121.934;2023-05-07T07:57:11;11.00;99.90
20200;DHT22;36284;37.236;-121.934;2023-05-07T07:59:38;11.00;99.90
20200;DHT22;36284;37.236;-121.934;2023-05-07T08:02:06;11.00;99.90
20200;DHT22;36284;37.236;-121.934;2023-05-07T08:04:33;11.10;99.90
20200;DHT22;36284;37.236;-121.934;2023-05-07T08:07:00;11.10;99.90
20200;DHT22;36284;37.236;-121.934;2023-05-07T08:09:27;11.20;99.90
20200;DHT22;36284;37.236;-121.934;2023-05-07T08:11:54;11.20;99.90
20200;DHT22;36284;37.236;-121.934;2023-05-07T08:14:21;11.20;99.90
20200;DHT22;36284;37.236;-121.934;2023-05-07T08:16:48;11.40;99.90
20200;DHT22;36284;37.236;-121.934;2023-05-07T08:19:15;11.50;99.90
20200;DHT22;36284;37.236;-121.934;2023-05-07T08:21:42;11.50;99.90
20200;DHT22;36284;37.236;-121.934;2023-05-07T08:24:09;11.50;99.90
20200;DHT22;36284;37.236;-121.934;2023-05-07T08:26:36;11.50;99.90
20200;DHT22;36284;37.236;-121.934;2023-05-07T08:29:05;11.60;99.90
20200;DHT22;36284;37.236;-121.934;2023-05-07T08:31:32;11.60;99.90
20200;DHT22;36284;37.236;-121.934;2023-05-07T08:33:59;11.60;99.90
20200;DHT22;36284;37.236;-121.934;2023-05-07T08:36:26;11.70;99.90
20200;DHT22;36284;37.236;-121.934;2023-05-07T08:38:54;11.60;99.90
20200;DHT22;36284;37.236;-121.934;2023-05-07T08:41:21;11.60;99.90
20200;DHT22;36284;37.236;-121.934;2023-05-07T08:43:49;11.70;99.90
20200;DHT22;36284;37.236;-121.934;2023-05-07T08:46:21;11.70;99.90
20200;DHT22;36284;37.236;-121.934;2023-05-07T08:48:49;11.60;99.90
20200;DHT22;36284;37.236;-121.934;2023-05-07T08:51:19;11.70;99.90
20200;DHT22;36284;37.236;-121.934;2023-05-07T08:53:50;11.70;99.90
20200;DHT22;36284;37.236;-121.934;2023-05-07T08:56:17;11.70;99.90
20200;DHT22;36284;37.236;-121.934;2023-05-07T08:58:47;11.80;99.90
20200;DHT22;36284;37.236;-121.934;2023-05-07T09:01:15;11.80;99.90
20200;DHT22;36284;37.236;-121.934;2023-05-07T09:03:46;11.80;99.90
20200;DHT22;36284;37.236;-121.934;2023-05-07T09:06:13;11.80;99.90
20200;DHT22;36284;37.236;-121.934;2023-05-07T09:08:40;11.80;99.90
20200;DHT22;36284;37.236;-121.934;2023-05-07T09:11:07;11.80;99.90
20200;DHT22;36284;37.236;-121.934;2023-05-07T09:13:34;11.80;99.90
20200;DHT22;36284;37.236;-121.934;2023-05-07T09:16:12;11.80;99.90
20200;DHT22;36284;37.236;-121.934;2023-05-07T09:18:43;11.80;99.90
20200;DHT22;36284;37.236;-121.934;2023-05-07T09:21:14;11.70;99.90
20200;DHT22;36284;37.236;-121.934;2023-05-07T09:23:42;11.70;99.90
20200;DHT22;36284;37.236;-121.934;2023-05-07T09:26:09;11.70;99.90
20200;DHT22;36284;37.236;-121.934;2023-05-07T09:28:39;11.70;99.90
20200;DHT22;36284;37.236;-121.934;2023-05-07T09:31:08;11.70;99.90
20200;DHT22;36284;37.236;-121.934;2023-05-07T09:33:35;11.70;99.90
20200;DHT22;36284;37.236;-121.934;2023-05-07T09:36:03;11.70;99.90
20200;DHT22;36284;37.236;-121.934;2023-05-07T09:38:33;11.70;99.90
20200;DHT22;36284;37.236;-121.934;2023-05-07T09:41:11;11.70;99.90
20200;DHT22;36284;37.236;-121.934;2023-05-07T09:43:39;11.80;99.90
20200;DHT22;36284;37.236;-121.934;2023-05-07T09:46:14;11.80;99.90
20200;DHT22;36284;37.236;-121.934;2023-05-07T09:48:42;11.80;99.90
20200;DHT22;36284;37.236;-121.934;2023-05-07T09:51:30;11.80;99.90
20200;DHT22;36284;37.236;-121.934;2023-05-07T09:54:00;11.80;99.90
20200;DHT22;36284;37.236;-121.934;2023-05-07T09:56:32;11.80;99.90
20200;DHT22;36284;37.236;-121.934;2023-05-07T09:59:01;11.80;99.90
20200;DHT22;36284;37.236;-121.934;2023-05-07T10:01:31;11.80;99.90
20200;DHT22;36284;37.236;-121.934;2023-05-07T10:03:58;11.80;99.90
20200;DHT22;36284;37.236;-121.934;2023-05-07T10:06:25;11.90;99.90
20200;DHT22;36284;37.236;-121.934;2023-05-07T10:08:53;11.90;99.90
20200;DHT22;36284;37.236;-121.934;2023-05-07T10:11:22;11.90;99.90
20200;DHT22;36284;37.236;-121.934;2023-05-07T10:13:50;11.90;99.90
20200;DHT22;36284;37.236;-121.934;2023-05-07T10:16:19;11.90;99.90
20200;DHT22;36284;37.236;-121.934;2023-05-07T10:18:47;11.80;99.90
20200;DHT22;36284;37.236;-121.934;2023-05-07T10:21:19;11.90;99.90
20200;DHT22;36284;37.236;-121.934;2023-05-07T10:23:50;11.80;99.90
20200;DHT22;36284;37.236;-121.934;2023-05-07T10:26:19;11.90;99.90
20200;DHT22;36284;37.236;-121.934;2023-05-07T10:28:50;11.90;99.90
20200;DHT22;36284;37.236;-121.934;2023-05-07T10:31:34;11.90;99.90
20200;DHT22;36284;37.236;-121.934;2023-05-07T10:34:12;11.90;99.90
20200;DHT22;36284;37.236;-121.934;2023-05-07T10:36:40;11.80;99.90
20200;DHT22;36284;37.236;-121.934;2023-05-07T10:39:08;11.90;99.90
20200;DHT22;36284;37.236;-121.934;2023-05-07T10:41:36;11.90;99.90
20200;DHT22;36284;37.236;-121.934;2023-05-07T10:44:03;12.00;99.90
20200;DHT22;36284;37.236;-121.934;2023-05-07T10:46:30;12.00;99.90
20200;DHT22;36284;37.236;-121.934;2023-05-07T10:51:30;12.00;99.90
20200;DHT22;36284;37.236;-121.934;2023-05-07T10:56:43;11.90;99.90
20200;DHT22;36284;37.236;-121.934;2023-05-07T11:01:58;11.80;99.90
20200;DHT22;36284;37.236;-121.934;2023-05-07T11:04:26;11.70;99.90
20200;DHT22;36284;37.236;-121.934;2023-05-07T11:07:14;11.70;99.90
20200;DHT22;36284;37.236;-121.934;2023-05-07T11:15:04;11.70;99.90
20200;DHT22;36284;37.236;-121.934;2023-05-07T11:17:32;11.70;99.90
20200;DHT22;36284;37.236;-121.934;2023-05-07T11:20:01;11.60;99.90
20200;DHT22;36284;37.236;-121.934;2023-05-07T11:25:07;11.50;99.90
20200;DHT22;36284;37.236;-121.934;2023-05-07T11:27:35;11.50;99.90
20200;DHT22;36284;37.236;-121.934;2023-05-07T11:30:02;11.50;99.90
20200;DHT22;36284;37.236;-121.934;2023-05-07T11:32:31;11.50;99.90
20200;DHT22;36284;37.236;-121.934;2023-05-07T11:34:59;11.50;99.90
20200;DHT22;36284;37.236;-121.934;2023-05-07T11:37:28;11.50;99.90
20200;DHT22;36284;37.236;-121.934;2023-05-07T11:40:06;11.40;99.90
20200;DHT22;36284;37.236;-121.934;2023-05-07T11:42:36;11.50;99.90
20200;DHT22;36284;37.236;-121.934;2023-05-07T11:45:06;11.40;99.90
20200;DHT22;36284;37.236;-121.934;2023-05-07T11:47:34;11.40;99.90
20200;DHT22;36284;37.236;-121.934;2023-05-07T11:50:06;11.40;99.90
20200;DHT22;36284;37.236;-121.934;2023-05-07T11:52:34;11.40;99.90
20200;DHT22;36284;37.236;-121.934;2023-05-07T11:55:02;11.40;99.90
20200;DHT22;36284;37.236;-121.934;2023-05-07T11:57:32;11.40;99.90
20200;DHT22;36284;37.236;-121.934;2023-05-07T12:00:00;11.40;99.90
20200;DHT22;36284;37.236;-121.934;2023-05-07T12:02:31;11.40;99.90
20200;DHT22;36284;37.236;-121.934;2023-05-07T12:05:00;11.30;99.90
20200;DHT22;36284;37.236;-121.934;2023-05-07T12:07:28;11.30;99.90
20200;DHT22;36284;37.236;-121.934;2023-05-07T12:09:56;11.20;99.90
20200;DHT22;36284;37.236;-121.934;2023-05-07T12:12:23;11.30;99.90
20200;DHT22;36284;37.236;-121.934;2023-05-07T12:14:49;11.40;99.90
20200;DHT22;36284;37.236;-121.934;2023-05-07T12:17:17;11.40;99.90
20200;DHT22;36284;37.236;-121.934;2023-05-07T12:19:45;11.40;99.90
20200;DHT22;36284;37.236;-121.934;2023-05-07T12:22:12;11.30;99.90
20200;DHT22;36284;37.236;-121.934;2023-05-07T12:24:45;11.30;99.90
20200;DHT22;36284;37.236;-121.934;2023-05-07T12:27:14;11.30;99.90
20200;DHT22;36284;37.236;-121.934;2023-05-07T12:29:45;11.30;99.90
20200;DHT22;36284;37.236;-121.934;2023-05-07T12:32:16;11.30;99.90
20200;DHT22;36284;37.236;-121.934;2023-05-07T12:34:47;11.30;99.90
20200;DHT22;36284;37.236;-121.934;2023-05-07T12:37:16;11.20;99.90
20200;DHT22;36284;37.236;-121.934;2023-05-07T12:40:02;11.10;99.90
20200;DHT22;36284;37.236;-121.934;2023-05-07T12:42:40;11.10;99.90
20200;DHT22;36284;37.236;-121.934;2023-05-07T12:45:13;11.10;99.90
20200;DHT22;36284;37.236;-121.934;2023-05-07T12:47:45;11.10;99.90
20200;DHT22;36284;37.236;-121.934;2023-05-07T12:50:16;11.10;99.90
20200;DHT22;36284;37.236;-121.934;2023-05-07T12:52:45;11.10;99.90
20200;DHT22;36284;37.236;-121.934;2023-05-07T12:55:14;11.00;99.90
20200;DHT22;36284;37.236;-121.934;2023-05-07T12:57:47;11.00;99.90
20200;DHT22;36284;37.236;-121.934;2023-05-07T13:00:15;11.00;99.90
20200;DHT22;36284;37.236;-121.934;2023-05-07T13:02:43;11.00;99.90
20200;DHT22;36284;37.236;-121.934;2023-05-07T13:05:13;11.00;99.90
20200;DHT22;36284;37.236;-121.934;2023-05-07T13:07:40;10.90;99.90
20200;DHT22;36284;37.236;-121.934;2023-05-07T13:10:08;10.90;99.90
20200;DHT22;36284;37.236;-121.934;2023-05-07T13:12:35;10.80;99.90
20200;DHT22;36284;37.236;-121.934;2023-05-07T13:15:02;10.80;99.90
20200;DHT22;36284;37.236;-121.934;2023-05-07T13:19:57;10.60;99.90
20200;DHT22;36284;37.236;-121.934;2023-05-07T13:22:24;10.80;99.90
20200;DHT22;36284;37.236;-121.934;2023-05-07T13:24:51;10.80;99.90
20200;DHT22;36284;37.236;-121.934;2023-05-07T13:27:18;10.80;99.90
20200;DHT22;36284;37.236;-121.934;2023-05-07T13:29:46;10.70;99.90
20200;DHT22;36284;37.236;-121.934;2023-05-07T13:32:12;10.70;99.90
20200;DHT22;36284;37.236;-121.934;2023-05-07T13:34:39;10.80;99.90
20200;DHT22;36284;37.236;-121.934;2023-05-07T13:37:06;10.90;99.90
20200;DHT22;36284;37.236;-121.934;2023-05-07T13:39:34;10.80;99.90
20200;DHT22;36284;37.236;-121.934;2023-05-07T13:42:01;10.60;99.90
20200;DHT22;36284;37.236;-121.934;2023-05-07T13:44:28;10.70;99.90
20200;DHT22;36284;37.236;-121.934;2023-05-07T13:46:54;10.70;99.90
20200;DHT22;36284;37.236;-121.934;2023-05-07T13:49:22;10.80;99.90
20200;DHT22;36284;37.236;-121.934;2023-05-07T13:51:49;10.80;99.90
20200;DHT22;36284;37.236;-121.934;2023-05-07T13:54:16;10.90;99.90
20200;DHT22;36284;37.236;-121.934;2023-05-07T13:56:43;10.90;99.90
20200;DHT22;36284;37.236;-121.934;2023-05-07T13:59:09;10.80;99.90
20200;DHT22;36284;37.236;-121.934;2023-05-07T14:01:36;10.90;99.90
20200;DHT22;36284;37.236;-121.934;2023-05-07T14:04:03;11.00;99.90
20200;DHT22;36284;37.236;-121.934;2023-05-07T14:06:33;10.90;99.90
20200;DHT22;36284;37.236;-121.934;2023-05-07T14:09:00;10.90;99.90
20200;DHT22;36284;37.236;-121.934;2023-05-07T14:11:27;11.00;99.90
20200;DHT22;36284;37.236;-121.934;2023-05-07T14:13:54;11.10;99.90
20200;DHT22;36284;37.236;-121.934;2023-05-07T14:16:23;11.10;99.90
20200;DHT22;36284;37.236;-121.934;2023-05-07T14:18:50;11.10;99.90
20200;DHT22;36284;37.236;-121.934;2023-05-07T14:21:16;11.20;99.90
20200;DHT22;36284;37.236;-121.934;2023-05-07T14:23:43;11.10;99.90
20200;DHT22;36284;37.236;-121.934;2023-05-07T14:26:10;11.10;99.90
20200;DHT22;36284;37.236;-121.934;2023-05-07T14:28:37;11.20;99.90
20200;DHT22;36284;37.236;-121.934;2023-05-07T14:31:05;11.20;99.90
20200;DHT22;36284;37.236;-121.934;2023-05-07T14:33:33;11.30;99.90
20200;DHT22;36284;37.236;-121.934;2023-05-07T14:36:00;11.20;99.90
20200;DHT22;36284;37.236;-121.934;2023-05-07T14:38:26;11.40;99.90
20200;DHT22;36284;37.236;-121.934;2023-05-07T14:40:53;11.50;99.90
20200;DHT22;36284;37.236;-121.934;2023-05-07T14:43:22;11.40;99.90
20200;DHT22;36284;37.236;-121.934;2023-05-07T14:45:49;11.50;99.90
20200;DHT22;36284;37.236;-121.934;2023-05-07T14:48:16;11.70;99.90
20200;DHT22;36284;37.236;-121.934;2023-05-07T14:50:43;11.70;99.90
20200;DHT22;36284;37.236;-121.934;2023-05-07T14:53:10;12.00;99.90
20200;DHT22;36284;37.236;-121.934;2023-05-07T14:55:37;12.10;99.90
20200;DHT22;36284;37.236;-121.934;2023-05-07T14:58:04;12.20;99.90
20200;DHT22;36284;37.236;-121.934;2023-05-07T15:00:31;12.10;99.90
20200;DHT22;36284;37.236;-121.934;2023-05-07T15:22:42;12.30;99.90
20200;DHT22;36284;37.236;-121.934;2023-05-07T15:25:09;12.60;99.90
20200;DHT22;36284;37.236;-121.934;2023-05-07T16:43:48;16.40;99.90
20200;DHT22;36284;37.236;-121.934;2023-05-07T16:46:15;17.50;99.90
20200;DHT22;36284;37.236;-121.934;2023-05-07T16:48:42;17.40;99.90
20200;DHT22;36284;37.236;-121.934;2023-05-07T16:51:09;17.70;99.90
20200;DHT22;36284;37.236;-121.934;2023-05-07T16:53:36;18.20;99.90
20200;DHT22;36284;37.236;-121.934;2023-05-07T17:01:00;18.50;99.90
20200;DHT22;36284;37.236;-121.934;2023-05-07T17:03:28;17.90;99.90
20200;DHT22;36284;37.236;-121.934;2023-05-07T17:13:18;17.20;99.90
20200;DHT22;36284;37.236;-121.934;2023-05-07T17:18:13;16.70;99.90
20200;DHT22;36284;37.236;-121.934;2023-05-07T17:20:40;16.90;99.90
20200;DHT22;36284;37.236;-121.934;2023-05-07T17:23:07;16.90;99.90
20200;DHT22;36284;37.236;-121.934;2023-05-07T17:25:34;17.00;99.90
20200;DHT22;36284;37.236;-121.934;2023-05-07T17:28:04;17.50;99.90
20200;DHT22;36284;37.236;-121.934;2023-05-07T17:30:31;17.00;99.90
20200;DHT22;36284;37.236;-121.934;2023-05-07T17:32:58;16.50;99.90
20200;DHT22;36284;37.236;-121.934;2023-05-07T17:35:25;16.60;99.90
20200;DHT22;36284;37.236;-121.934;2023-05-07T17:37:52;16.80;99.90
20200;DHT22;36284;37.236;-121.934;2023-05-07T17:40:20;17.70;99.90
20200;DHT22;36284;37.236;-121.934;2023-05-07T17:42:48;17.80;99.90
20200;DHT22;36284;37.236;-121.934;2023-05-07T17:45:15;17.30;99.90
20200;DHT22;36284;37.236;-121.934;2023-05-07T17:47:42;17.60;99.90
20200;DHT22;36284;37.236;-121.934;2023-05-07T17:52:38;18.90;99.90
20200;DHT22;36284;37.236;-121.934;2023-05-07T18:00:05;20.30;99.90
20200;DHT22;36284;37.236;-121.934;2023-05-07T19:06:17;20.50;99.90
20200;DHT22;36284;37.236;-121.934;2023-05-07T19:08:46;19.30;99.90
20200;DHT22;36284;37.236;-121.934;2023-05-07T19:11:13;18.90;99.90
20200;DHT22;36284;37.236;-121.934;2023-05-07T19:13:40;19.20;99.90
20200;DHT22;36284;37.236;-121.934;2023-05-07T19:28:27;22.10;99.90
20200;DHT22;36284;37.236;-121.934;2023-05-07T19:30:55;21.20;99.90
20200;DHT22;36284;37.236;-121.934;2023-05-07T19:33:22;21.60;99.90
20200;DHT22;36284;37.236;-121.934;2023-05-07T19:35:49;20.80;99.90
20200;DHT22;36284;37.236;-121.934;2023-05-07T19:38:18;20.00;99.90
20200;DHT22;36284;37.236;-121.934;2023-05-07T19:40:45;20.30;99.90
20200;DHT22;36284;37.236;-121.934;2023-05-07T19:43:12;20.60;99.90
20200;DHT22;36284;37.236;-121.934;2023-05-07T19:45:39;20.90;99.90
20200;DHT22;36284;37.236;-121.934;2023-05-07T19:48:09;21.30;99.90
20200;DHT22;36284;37.236;-121.934;2023-05-07T19:53:04;20.50;99.90
20200;DHT22;36284;37.236;-121.934;2023-05-07T20:07:47;22.90;99.90
20200;DHT22;36284;37.236;-121.934;2023-05-07T20:10:14;22.60;99.90
20200;DHT22;36284;37.236;-121.934;2023-05-07T20:12:41;22.40;99.90
20200;DHT22;36284;37.236;-121.934;2023-05-07T20:15:08;23.00;99.90
20200;DHT22;36284;37.236;-121.934;2023-05-07T20:17:35;23.10;99.90
20200;DHT22;36284;37.236;-121.934;2023-05-07T20:20:03;22.90;99.90
20200;DHT22;36284;37.236;-121.934;2023-05-07T20:22:30;22.80;99.90
20200;DHT22;36284;37.236;-121.934;2023-05-07T20:24:57;22.90;99.90
20200;DHT22;36284;37.236;-121.934;2023-05-07T20:27:24;22.10;99.90
20200;DHT22;36284;37.236;-121.934;2023-05-07T20:29:52;21.90;99.90
20200;DHT22;36284;37.236;-121.934;2023-05-07T20:32:20;22.30;99.90
20200;DHT22;36284;37.236;-121.934;2023-05-07T20:34:47;22.70;99.90
20200;DHT22;36284;37.236;-121.934;2023-05-07T20:37:14;22.80;99.90
20200;DHT22;36284;37.236;-121.934;2023-05-07T20:39:41;23.10;99.90
20200;DHT22;36284;37.236;-121.934;2023-05-07T20:42:09;22.50;99.90
20200;DHT22;36284;37.236;-121.934;2023-05-07T20:44:36;23.50;99.90
20200;DHT22;36284;37.236;-121.934;2023-05-07T20:47:03;23.70;99.90
20200;DHT22;36284;37.236;-121.934;2023-05-07T20:49:30;22.40;99.90
20200;DHT22;36284;37.236;-121.934;2023-05-07T20:51:57;22.70;99.90
20200;DHT22;36284;37.236;-121.934;2023-05-07T20:54:24;22.80;99.90
20200;DHT22;36284;37.236;-121.934;2023-05-07T20:56:54;22.10;99.90
20200;DHT22;36284;37.236;-121.934;2023-05-07T20:59:21;23.50;99.90
20200;DHT22;36284;37.236;-121.934;2023-05-07T21:01:47;22.60;99.90
20200;DHT22;36284;37.236;-121.934;2023-05-07T21:04:14;21.90;99.90
20200;DHT22;36284;37.236;-121.934;2023-05-07T21:06:41;22.20;99.90
20200;DHT22;36284;37.236;-121.934;2023-05-07T21:09:09;22.20;99.90
20200;DHT22;36284;37.236;-121.934;2023-05-07T21:11:36;22.80;99.90
20200;DHT22;36284;37.236;-121.934;2023-05-07T21:14:03;22.50;99.90
20200;DHT22;36284;37.236;-121.934;2023-05-07T21:16:30;22.30;99.90
20200;DHT22;36284;37.236;-121.934;2023-05-07T21:18:57;22.50;99.90
20200;DHT22;36284;37.236;-121.934;2023-05-07T21:21:24;22.10;99.90
20200;DHT22;36284;37.236;-121.934;2023-05-07T21:23:51;21.80;99.90
20200;DHT22;36284;37.236;-121.934;2023-05-07T21:26:19;22.20;99.90
20200;DHT22;36284;37.236;-121.934;2023-05-07T21:28:47;22.60;99.90
20200;DHT22;36284;37.236;-121.934;2023-05-07T21:31:14;22.90;99.90
20200;DHT22;36284;37.236;-121.934;2023-05-07T21:33:42;22.40;99.90
20200;DHT22;36284;37.236;-121.934;2023-05-07T21:36:09;22.90;99.90
20200;DHT22;36284;37.236;-121.934;2023-05-07T21:38:37;22.90;99.90
20200;DHT22;36284;37.236;-121.934;2023-05-07T21:41:04;22.80;99.90
20200;DHT22;36284;37.236;-121.934;2023-05-07T21:43:31;22.00;99.90
20200;DHT22;36284;37.236;-121.934;2023-05-07T21:45:58;21.90;99.90
20200;DHT22;36284;37.236;-121.934;2023-05-07T21:48:26;22.10;99.90
20200;DHT22;36284;37.236;-121.934;2023-05-07T21:51:03;22.10;99.90
20200;DHT22;36284;37.236;-121.934;2023-05-07T21:53:32;23.20;99.90
20200;DHT22;36284;37.236;-121.934;2023-05-07T21:55:59;23.70;99.90
20200;DHT22;36284;37.236;-121.934;2023-05-07T21:58:28;23.00;99.90
20200;DHT22;36284;37.236;-121.934;2023-05-07T22:00:56;22.60;99.90
20200;DHT22;36284;37.236;-121.934;2023-05-07T22:03:23;22.80;99.90
20200;DHT22;36284;37.236;-121.934;2023-05-07T22:05:50;22.50;99.90
20200;DHT22;36284;37.236;-121.934;2023-05-07T22:08:17;22.10;99.90
20200;DHT22;36284;37.236;-121.934;2023-05-07T22:10:44;22.50;99.90
20200;DHT22;36284;37.236;-121.934;2023-05-07T22:13:11;22.30;99.90
20200;DHT22;36284;37.236;-121.934;2023-05-07T22:15:38;22.10;99.90
20200;DHT22;36284;37.236;-121.934;2023-05-07T22:18:05;22.00;99.90
20200;DHT22;36284;37.236;-121.934;2023-05-07T22:20:32;21.90;99.90
20200;DHT22;36284;37.236;-121.934;2023-05-07T22:27:53;21.90;99.90
20200;DHT22;36284;37.236;-121.934;2023-05-07T22:30:20;22.70;99.90
20200;DHT22;36284;37.236;-121.934;2023-05-07T22:32:47;22.80;99.90
20200;DHT22;36284;37.236;-121.934;2023-05-07T22:35:14;22.60;99.90
20200;DHT22;36284;37.236;-121.934;2023-05-07T22:37:41;22.90;99.90
20200;DHT22;36284;37.236;-121.934;2023-05-07T22:40:08;22.80;99.90
20200;DHT22;36284;37.236;-121.934;2023-05-07T22:42:35;22.70;99.90
20200;DHT22;36284;37.236;-121.934;2023-05-07T22:45:02;22.20;99.90
20200;DHT22;36284;37.236;-121.934;2023-05-07T22:47:29;23.00;99.90